Zenith Leader — 2ACU6 — position and weather

sailwx.info

Track history (hours):
 
Tides and Currents Weather Stations Pressure Air Temp Water Temp Dewpoint Dewpoint Depression Visibility Wind Speed Wind Dir Waves Ship Positions

Zenith Leader

Last reported at 2016-Feb-07 17:33 UTC. Time now 2016-Feb-13 04:39 UTC.
Position N 19°19' W 095°35'.

Length 200 m; draft 7.4 m.

Type: Cargo ship. MMSI: 235058697.

Date/timePositionNaut miles runAvg speedWind from/ knotsBaromVisibWave heightAir tempDewpointWater temp
2016-Feb-07 17:33N 19°19' W 095°35'1514.8
2016-Feb-07 16:34N 19°12' W 095°49'1413.7
2016-Feb-07 15:33N 19°11' W 096°03'5 5.1
2016-Feb-07 14:33N 19°13' W 096°08'0 0.0
2016-Feb-07 13:33N 19°13' W 096°08'0 0.0
2016-Feb-07 12:33N 19°13' W 096°08'0 0.0
2016-Feb-07 11:33N 19°13' W 096°08'0 0.0
2016-Feb-07 10:33N 19°13' W 096°08'0 0.0
2016-Feb-07 09:33N 19°13' W 096°08'0 0.0
2016-Feb-07 08:27N 19°13' W 096°08'0 0.0
2016-Feb-07 07:30N 19°13' W 096°08'0 0.0
2016-Feb-07 06:18N 19°13' W 096°08'0 0.0
2016-Feb-07 05:33N 19°13' W 096°08'0 0.0
2016-Feb-07 04:30N 19°13' W 096°08'0 0.0
2016-Feb-07 03:33N 19°13' W 096°08'0 0.0
2016-Feb-07 02:30N 19°13' W 096°08'0 0.0
2016-Feb-07 01:30N 19°13' W 096°08'0 0.0
2016-Feb-07 00:33N 19°13' W 096°08'0 0.0
2016-Feb-06 23:33N 19°13' W 096°08'0 0.0
2016-Feb-06 22:33N 19°13' W 096°08'0 0.0
2016-Feb-06 21:33N 19°13' W 096°08'0 0.0
2016-Feb-06 20:33N 19°13' W 096°08'0 0.0
2016-Feb-06 19:27N 19°13' W 096°08'0 0.0
2016-Feb-06 18:30N 19°13' W 096°08'0 0.0
2016-Feb-06 17:33N 19°13' W 096°08'0 0.0
2016-Feb-06 16:33N 19°13' W 096°08'0 0.0
2016-Feb-06 15:30N 19°13' W 096°08'0 0.0
2016-Feb-06 14:30N 19°13' W 096°08'0 0.0
2016-Feb-06 13:33N 19°13' W 096°08'0 0.0
2016-Feb-06 12:33N 19°13' W 096°08'0 0.0
2016-Feb-06 11:30N 19°13' W 096°08'0 0.0
2016-Feb-06 10:33N 19°13' W 096°08'0 0.0
2016-Feb-06 09:33N 19°13' W 096°08'0 0.0
2016-Feb-06 08:33N 19°13' W 096°08'0 0.0
2016-Feb-06 07:33N 19°13' W 096°08'0 0.0
2016-Feb-06 06:33N 19°13' W 096°08'0 0.0
2016-Feb-06 05:33N 19°13' W 096°08'0 0.0
2016-Feb-06 04:33N 19°13' W 096°08'0 0.0
2016-Feb-06 03:33N 19°13' W 096°08'0 0.0
2016-Feb-06 02:30N 19°13' W 096°08'0 0.0
2016-Feb-06 01:33N 19°13' W 096°08'0 0.0
2016-Feb-06 00:33N 19°13' W 096°08'0 0.1
2016-Feb-05 23:33N 19°13' W 096°08'6 5.6
2016-Feb-05 22:33N 19°12' W 096°02'  
2016-Feb-01 19:31N 25°36' W 079°30'1313.8
2016-Feb-01 18:33N 25°49' W 079°28'1414.0
2016-Feb-01 17:34N 26°03' W 079°26'1414.4
2016-Feb-01 16:33N 26°17' W 079°24'1514.6
2016-Feb-01 15:33N 26°32' W 079°22'70013.7
2016-Jan-30 12:25N 37°53' W 076°10'1416.2
2016-Jan-30 11:33N 38°06' W 076°14'3816.6
2016-Jan-30 09:16N 38°43' W 076°26'1216.9
2016-Jan-30 08:33N 38°55' W 076°24'1615.6
2016-Jan-30 07:33N 39°10' W 076°26'7 0.6
2016-Jan-29 18:21N 39°14' W 076°34'0 0.0
2016-Jan-29 14:27N 39°14' W 076°34'0 0.0
2016-Jan-29 13:33N 39°14' W 076°34'0 0.0
2016-Jan-29 12:33N 39°14' W 076°34'0 0.0
2016-Jan-29 11:33N 39°14' W 076°34'0 0.0
2016-Jan-29 10:33N 39°14' W 076°34'2 2.1
2016-Jan-29 09:33N 39°13' W 076°32'9 9.2
2016-Jan-29 08:33N 39°07' W 076°24'1211.7
2016-Jan-29 07:33N 38°55' W 076°24'0 0.4
2016-Jan-29 06:31N 38°55' W 076°24'0 0.0
2016-Jan-29 05:31N 38°55' W 076°24'0 0.1
2016-Jan-29 04:31N 38°55' W 076°24'0 0.0
2016-Jan-29 03:31N 38°55' W 076°24'0 0.0
2016-Jan-29 02:31N 38°55' W 076°24'0 0.0
2016-Jan-29 01:31N 38°55' W 076°24'0 0.0
2016-Jan-29 00:31N 38°55' W 076°24'0 0.0
2016-Jan-28 23:31N 38°55' W 076°24'0 0.0
2016-Jan-28 22:32N 38°55' W 076°24'8 8.0
2016-Jan-28 21:33N 38°47' W 076°25'3316.0
2016-Jan-28 19:31N 38°15' W 076°16'1716.3
2016-Jan-28 18:28N 37°58' W 076°11'  
Track history (hours):
 
Tides and Currents Weather Stations Pressure Air Temp Water Temp Dewpoint Dewpoint Depression Visibility Wind Speed Wind Dir Waves Ship Positions

Zenith Leader

Last reported at 2016-Feb-07 17:33 UTC. Time now 2016-Feb-13 04:39 UTC.
Position N 19°19' W 095°35'.

Length 200 m; draft 7.4 m.

Type: Cargo ship. MMSI: 235058697.

Date/timePositionNaut miles runAvg speedWind from/ knotsBaromVisibWave heightAir tempDewpointWater temp
2016-Feb-07 17:33N 19°19' W 095°35'1514.8
2016-Feb-07 16:34N 19°12' W 095°49'1413.7
2016-Feb-07 15:33N 19°11' W 096°03'5 5.1
2016-Feb-07 14:33N 19°13' W 096°08'0 0.0
2016-Feb-07 13:33N 19°13' W 096°08'0 0.0
2016-Feb-07 12:33N 19°13' W 096°08'0 0.0
2016-Feb-07 11:33N 19°13' W 096°08'0 0.0
2016-Feb-07 10:33N 19°13' W 096°08'0 0.0
2016-Feb-07 09:33N 19°13' W 096°08'0 0.0
2016-Feb-07 08:27N 19°13' W 096°08'0 0.0
2016-Feb-07 07:30N 19°13' W 096°08'0 0.0
2016-Feb-07 06:18N 19°13' W 096°08'0 0.0
2016-Feb-07 05:33N 19°13' W 096°08'0 0.0
2016-Feb-07 04:30N 19°13' W 096°08'0 0.0
2016-Feb-07 03:33N 19°13' W 096°08'0 0.0
2016-Feb-07 02:30N 19°13' W 096°08'0 0.0
2016-Feb-07 01:30N 19°13' W 096°08'0 0.0
2016-Feb-07 00:33N 19°13' W 096°08'0 0.0
2016-Feb-06 23:33N 19°13' W 096°08'0 0.0
2016-Feb-06 22:33N 19°13' W 096°08'0 0.0
2016-Feb-06 21:33N 19°13' W 096°08'0 0.0
2016-Feb-06 20:33N 19°13' W 096°08'0 0.0
2016-Feb-06 19:27N 19°13' W 096°08'0 0.0
2016-Feb-06 18:30N 19°13' W 096°08'0 0.0
2016-Feb-06 17:33N 19°13' W 096°08'0 0.0
2016-Feb-06 16:33N 19°13' W 096°08'0 0.0
2016-Feb-06 15:30N 19°13' W 096°08'0 0.0
2016-Feb-06 14:30N 19°13' W 096°08'0 0.0
2016-Feb-06 13:33N 19°13' W 096°08'0 0.0
2016-Feb-06 12:33N 19°13' W 096°08'0 0.0
2016-Feb-06 11:30N 19°13' W 096°08'0 0.0
2016-Feb-06 10:33N 19°13' W 096°08'0 0.0
2016-Feb-06 09:33N 19°13' W 096°08'0 0.0
2016-Feb-06 08:33N 19°13' W 096°08'0 0.0
2016-Feb-06 07:33N 19°13' W 096°08'0 0.0
2016-Feb-06 06:33N 19°13' W 096°08'0 0.0
2016-Feb-06 05:33N 19°13' W 096°08'0 0.0
2016-Feb-06 04:33N 19°13' W 096°08'0 0.0
2016-Feb-06 03:33N 19°13' W 096°08'0 0.0
2016-Feb-06 02:30N 19°13' W 096°08'0 0.0
2016-Feb-06 01:33N 19°13' W 096°08'0 0.0
2016-Feb-06 00:33N 19°13' W 096°08'0 0.1
2016-Feb-05 23:33N 19°13' W 096°08'6 5.6
2016-Feb-05 22:33N 19°12' W 096°02'  
2016-Feb-01 19:31N 25°36' W 079°30'1313.8
2016-Feb-01 18:33N 25°49' W 079°28'1414.0
2016-Feb-01 17:34N 26°03' W 079°26'1414.4
2016-Feb-01 16:33N 26°17' W 079°24'1514.6
2016-Feb-01 15:33N 26°32' W 079°22'70013.7
2016-Jan-30 12:25N 37°53' W 076°10'1416.2
2016-Jan-30 11:33N 38°06' W 076°14'3816.6
2016-Jan-30 09:16N 38°43' W 076°26'1216.9
2016-Jan-30 08:33N 38°55' W 076°24'1615.6
2016-Jan-30 07:33N 39°10' W 076°26'7 0.6
2016-Jan-29 18:21N 39°14' W 076°34'0 0.0
2016-Jan-29 14:27N 39°14' W 076°34'0 0.0
2016-Jan-29 13:33N 39°14' W 076°34'0 0.0
2016-Jan-29 12:33N 39°14' W 076°34'0 0.0
2016-Jan-29 11:33N 39°14' W 076°34'0 0.0
2016-Jan-29 10:33N 39°14' W 076°34'2 2.1
2016-Jan-29 09:33N 39°13' W 076°32'9 9.2
2016-Jan-29 08:33N 39°07' W 076°24'1211.7
2016-Jan-29 07:33N 38°55' W 076°24'0 0.4
2016-Jan-29 06:31N 38°55' W 076°24'0 0.0
2016-Jan-29 05:31N 38°55' W 076°24'0 0.1
2016-Jan-29 04:31N 38°55' W 076°24'0 0.0
2016-Jan-29 03:31N 38°55' W 076°24'0 0.0
2016-Jan-29 02:31N 38°55' W 076°24'0 0.0
2016-Jan-29 01:31N 38°55' W 076°24'0 0.0
2016-Jan-29 00:31N 38°55' W 076°24'0 0.0
2016-Jan-28 23:31N 38°55' W 076°24'0 0.0
2016-Jan-28 22:32N 38°55' W 076°24'8 8.0
2016-Jan-28 21:33N 38°47' W 076°25'3316.0
2016-Jan-28 19:31N 38°15' W 076°16'1716.3
2016-Jan-28 18:28N 37°58' W 076°11'  

Dump ship's entire track history